sensor_id;sensor_type;location;lat;lon;timestamp;P1;durP1;ratioP1;P2;durP2;ratioP2
75400;SDS011;63974;47.538;18.972;2023-05-23T00:01:38;7.60;;;6.05;;
75400;SDS011;63974;47.538;18.972;2023-05-23T00:04:41;8.85;;;5.78;;
75400;SDS011;63974;47.538;18.972;2023-05-23T00:07:44;9.93;;;6.37;;
75400;SDS011;63974;47.538;18.972;2023-05-23T00:10:47;9.35;;;5.88;;
75400;SDS011;63974;47.538;18.972;2023-05-23T00:13:51;9.63;;;5.95;;
75400;SDS011;63974;47.538;18.972;2023-05-23T00:16:54;8.63;;;5.90;;
75400;SDS011;63974;47.538;18.972;2023-05-23T00:19:57;9.13;;;6.00;;
75400;SDS011;63974;47.538;18.972;2023-05-23T00:23:00;11.33;;;6.57;;
75400;SDS011;63974;47.538;18.972;2023-05-23T00:26:04;10.32;;;6.18;;
75400;SDS011;63974;47.538;18.972;2023-05-23T00:29:07;10.18;;;5.85;;
75400;SDS011;63974;47.538;18.972;2023-05-23T00:32:17;13.52;;;6.05;;
75400;SDS011;63974;47.538;18.972;2023-05-23T00:35:20;9.30;;;6.13;;
75400;SDS011;63974;47.538;18.972;2023-05-23T00:38:23;9.80;;;5.80;;
75400;SDS011;63974;47.538;18.972;2023-05-23T00:41:25;11.60;;;5.78;;
75400;SDS011;63974;47.538;18.972;2023-05-23T00:44:32;15.02;;;6.05;;
75400;SDS011;63974;47.538;18.972;2023-05-23T00:47:34;8.18;;;5.57;;
75400;SDS011;63974;47.538;18.972;2023-05-23T00:50:37;13.43;;;6.05;;
75400;SDS011;63974;47.538;18.972;2023-05-23T00:53:40;9.13;;;5.70;;
75400;SDS011;63974;47.538;18.972;2023-05-23T00:56:44;7.47;;;5.25;;
75400;SDS011;63974;47.538;18.972;2023-05-23T00:59:48;8.45;;;5.95;;
75400;SDS011;63974;47.538;18.972;2023-05-23T01:02:51;11.50;;;5.55;;
75400;SDS011;63974;47.538;18.972;2023-05-23T01:05:55;8.77;;;6.13;;
75400;SDS011;63974;47.538;18.972;2023-05-23T01:08:58;10.40;;;7.00;;
75400;SDS011;63974;47.538;18.972;2023-05-23T01:12:13;8.75;;;5.85;;
75400;SDS011;63974;47.538;18.972;2023-05-23T01:15:27;8.00;;;6.07;;
75400;SDS011;63974;47.538;18.972;2023-05-23T01:18:47;10.75;;;6.25;;
75400;SDS011;63974;47.538;18.972;2023-05-23T01:22:15;11.35;;;6.07;;
75400;SDS011;63974;47.538;18.972;2023-05-23T01:29:03;9.70;;;6.63;;
75400;SDS011;63974;47.538;18.972;2023-05-23T01:32:11;10.27;;;5.78;;
75400;SDS011;63974;47.538;18.972;2023-05-23T01:35:17;10.00;;;5.93;;
75400;SDS011;63974;47.538;18.972;2023-05-23T01:38:25;9.40;;;5.97;;
75400;SDS011;63974;47.538;18.972;2023-05-23T01:41:28;7.63;;;5.93;;
75400;SDS011;63974;47.538;18.972;2023-05-23T01:44:34;9.73;;;5.82;;
75400;SDS011;63974;47.538;18.972;2023-05-23T01:47:38;10.02;;;6.07;;
75400;SDS011;63974;47.538;18.972;2023-05-23T01:50:43;10.43;;;6.70;;
75400;SDS011;63974;47.538;18.972;2023-05-23T01:53:49;10.32;;;6.40;;
75400;SDS011;63974;47.538;18.972;2023-05-23T01:56:52;10.50;;;6.10;;
75400;SDS011;63974;47.538;18.972;2023-05-23T01:59:55;8.82;;;5.85;;
75400;SDS011;63974;47.538;18.972;2023-05-23T02:02:58;12.30;;;6.65;;
75400;SDS011;63974;47.538;18.972;2023-05-23T02:06:01;11.23;;;6.00;;
75400;SDS011;63974;47.538;18.972;2023-05-23T02:09:04;10.73;;;6.35;;
75400;SDS011;63974;47.538;18.972;2023-05-23T02:12:07;12.63;;;6.13;;
75400;SDS011;63974;47.538;18.972;2023-05-23T02:15:11;10.50;;;5.75;;
75400;SDS011;63974;47.538;18.972;2023-05-23T02:18:14;10.50;;;6.47;;
75400;SDS011;63974;47.538;18.972;2023-05-23T02:21:17;10.27;;;6.22;;
75400;SDS011;63974;47.538;18.972;2023-05-23T02:24:20;8.23;;;5.97;;
75400;SDS011;63974;47.538;18.972;2023-05-23T02:27:23;11.47;;;5.67;;
75400;SDS011;63974;47.538;18.972;2023-05-23T02:30:26;11.30;;;6.45;;
75400;SDS011;63974;47.538;18.972;2023-05-23T02:33:29;10.13;;;5.82;;
75400;SDS011;63974;47.538;18.972;2023-05-23T02:36:31;11.52;;;5.95;;
75400;SDS011;63974;47.538;18.972;2023-05-23T02:39:35;11.10;;;6.20;;
75400;SDS011;63974;47.538;18.972;2023-05-23T02:42:38;10.73;;;5.53;;
75400;SDS011;63974;47.538;18.972;2023-05-23T02:45:41;11.05;;;6.25;;
75400;SDS011;63974;47.538;18.972;2023-05-23T02:48:45;11.88;;;6.47;;
75400;SDS011;63974;47.538;18.972;2023-05-23T02:51:47;9.90;;;6.47;;
75400;SDS011;63974;47.538;18.972;2023-05-23T02:54:50;9.13;;;5.85;;
75400;SDS011;63974;47.538;18.972;2023-05-23T02:57:53;8.90;;;6.40;;
75400;SDS011;63974;47.538;18.972;2023-05-23T03:00:56;10.38;;;5.75;;
75400;SDS011;63974;47.538;18.972;2023-05-23T03:03:59;8.95;;;5.47;;
75400;SDS011;63974;47.538;18.972;2023-05-23T03:07:02;12.15;;;6.28;;
75400;SDS011;63974;47.538;18.972;2023-05-23T03:10:08;8.43;;;5.78;;
75400;SDS011;63974;47.538;18.972;2023-05-23T03:13:11;11.20;;;5.93;;
75400;SDS011;63974;47.538;18.972;2023-05-23T03:16:14;9.23;;;6.00;;
75400;SDS011;63974;47.538;18.972;2023-05-23T03:19:17;8.80;;;5.97;;
75400;SDS011;63974;47.538;18.972;2023-05-23T03:22:20;9.95;;;6.10;;
75400;SDS011;63974;47.538;18.972;2023-05-23T03:25:23;11.68;;;6.25;;
75400;SDS011;63974;47.538;18.972;2023-05-23T03:28:25;12.47;;;6.33;;
75400;SDS011;63974;47.538;18.972;2023-05-23T03:31:28;10.45;;;5.90;;
75400;SDS011;63974;47.538;18.972;2023-05-23T03:34:31;12.30;;;5.72;;
75400;SDS011;63974;47.538;18.972;2023-05-23T03:37:35;14.27;;;5.97;;
75400;SDS011;63974;47.538;18.972;2023-05-23T03:40:37;10.70;;;6.30;;
75400;SDS011;63974;47.538;18.972;2023-05-23T03:43:40;11.80;;;6.10;;
75400;SDS011;63974;47.538;18.972;2023-05-23T03:46:43;10.57;;;6.70;;
75400;SDS011;63974;47.538;18.972;2023-05-23T03:49:46;10.20;;;6.13;;
75400;SDS011;63974;47.538;18.972;2023-05-23T03:52:49;10.77;;;5.63;;
75400;SDS011;63974;47.538;18.972;2023-05-23T03:55:51;11.48;;;6.03;;
75400;SDS011;63974;47.538;18.972;2023-05-23T03:58:55;11.83;;;6.20;;
75400;SDS011;63974;47.538;18.972;2023-05-23T04:01:58;10.27;;;6.07;;
75400;SDS011;63974;47.538;18.972;2023-05-23T04:05:02;7.80;;;5.80;;
75400;SDS011;63974;47.538;18.972;2023-05-23T04:08:05;15.10;;;6.20;;
75400;SDS011;63974;47.538;18.972;2023-05-23T04:11:09;10.32;;;5.80;;
75400;SDS011;63974;47.538;18.972;2023-05-23T04:14:14;8.37;;;5.13;;
75400;SDS011;63974;47.538;18.972;2023-05-23T04:17:19;9.10;;;5.65;;
75400;SDS011;63974;47.538;18.972;2023-05-23T04:20:22;7.97;;;5.57;;
75400;SDS011;63974;47.538;18.972;2023-05-23T04:23:25;11.70;;;6.28;;
75400;SDS011;63974;47.538;18.972;2023-05-23T04:26:29;9.93;;;6.05;;
75400;SDS011;63974;47.538;18.972;2023-05-23T04:29:33;15.00;;;6.80;;
75400;SDS011;63974;47.538;18.972;2023-05-23T04:32:37;11.70;;;6.25;;
75400;SDS011;63974;47.538;18.972;2023-05-23T04:35:40;11.02;;;7.05;;
75400;SDS011;63974;47.538;18.972;2023-05-23T04:38:44;10.80;;;6.75;;
75400;SDS011;63974;47.538;18.972;2023-05-23T04:41:48;13.27;;;6.93;;
75400;SDS011;63974;47.538;18.972;2023-05-23T04:45:10;11.40;;;7.73;;
75400;SDS011;63974;47.538;18.972;2023-05-23T04:48:39;17.20;;;7.25;;
75400;SDS011;63974;47.538;18.972;2023-05-23T04:51:42;9.45;;;7.30;;
75400;SDS011;63974;47.538;18.972;2023-05-23T04:55:01;11.63;;;6.57;;
75400;SDS011;63974;47.538;18.972;2023-05-23T04:58:04;10.35;;;7.20;;
75400;SDS011;63974;47.538;18.972;2023-05-23T05:01:06;10.60;;;7.00;;
75400;SDS011;63974;47.538;18.972;2023-05-23T05:04:11;11.02;;;6.82;;
75400;SDS011;63974;47.538;18.972;2023-05-23T05:07:14;13.63;;;7.40;;
75400;SDS011;63974;47.538;18.972;2023-05-23T05:10:18;10.80;;;7.18;;
75400;SDS011;63974;47.538;18.972;2023-05-23T05:13:22;14.05;;;7.15;;
75400;SDS011;63974;47.538;18.972;2023-05-23T05:16:27;15.20;;;7.03;;
75400;SDS011;63974;47.538;18.972;2023-05-23T05:19:30;11.20;;;7.82;;
75400;SDS011;63974;47.538;18.972;2023-05-23T05:22:33;15.27;;;7.20;;
75400;SDS011;63974;47.538;18.972;2023-05-23T05:25:37;11.55;;;7.30;;
75400;SDS011;63974;47.538;18.972;2023-05-23T05:28:43;11.30;;;8.45;;
75400;SDS011;63974;47.538;18.972;2023-05-23T05:31:45;11.10;;;7.67;;
75400;SDS011;63974;47.538;18.972;2023-05-23T05:34:48;10.70;;;7.55;;
75400;SDS011;63974;47.538;18.972;2023-05-23T05:37:53;10.27;;;7.65;;
75400;SDS011;63974;47.538;18.972;2023-05-23T05:40:56;10.13;;;7.40;;
75400;SDS011;63974;47.538;18.972;2023-05-23T05:44:01;9.55;;;7.07;;
75400;SDS011;63974;47.538;18.972;2023-05-23T05:47:04;15.23;;;8.50;;
75400;SDS011;63974;47.538;18.972;2023-05-23T05:50:07;13.35;;;7.95;;
75400;SDS011;63974;47.538;18.972;2023-05-23T05:53:12;10.25;;;7.80;;
75400;SDS011;63974;47.538;18.972;2023-05-23T05:56:15;12.60;;;7.50;;
75400;SDS011;63974;47.538;18.972;2023-05-23T05:59:18;9.27;;;7.30;;
75400;SDS011;63974;47.538;18.972;2023-05-23T06:02:21;8.20;;;6.87;;
75400;SDS011;63974;47.538;18.972;2023-05-23T06:05:25;10.45;;;7.63;;
75400;SDS011;63974;47.538;18.972;2023-05-23T06:08:28;8.50;;;7.10;;
75400;SDS011;63974;47.538;18.972;2023-05-23T06:11:30;8.85;;;7.20;;
75400;SDS011;63974;47.538;18.972;2023-05-23T06:14:34;9.35;;;7.88;;
75400;SDS011;63974;47.538;18.972;2023-05-23T06:17:37;11.63;;;7.83;;
75400;SDS011;63974;47.538;18.972;2023-05-23T06:20:40;10.43;;;6.60;;
75400;SDS011;63974;47.538;18.972;2023-05-23T06:23:48;8.80;;;6.53;;
75400;SDS011;63974;47.538;18.972;2023-05-23T06:26:51;8.45;;;6.78;;
75400;SDS011;63974;47.538;18.972;2023-05-23T06:29:54;10.27;;;6.13;;
75400;SDS011;63974;47.538;18.972;2023-05-23T06:32:56;8.13;;;6.17;;
75400;SDS011;63974;47.538;18.972;2023-05-23T06:35:59;10.48;;;6.57;;
75400;SDS011;63974;47.538;18.972;2023-05-23T06:39:02;7.25;;;6.35;;
75400;SDS011;63974;47.538;18.972;2023-05-23T06:42:05;8.43;;;7.50;;
75400;SDS011;63974;47.538;18.972;2023-05-23T06:45:24;10.38;;;7.35;;
75400;SDS011;63974;47.538;18.972;2023-05-23T06:48:27;11.03;;;7.70;;
75400;SDS011;63974;47.538;18.972;2023-05-23T06:51:30;9.35;;;7.20;;
75400;SDS011;63974;47.538;18.972;2023-05-23T06:54:35;10.00;;;7.47;;
75400;SDS011;63974;47.538;18.972;2023-05-23T06:57:37;8.05;;;7.18;;
75400;SDS011;63974;47.538;18.972;2023-05-23T07:00:40;7.80;;;6.50;;
75400;SDS011;63974;47.538;18.972;2023-05-23T07:03:50;8.73;;;7.60;;
75400;SDS011;63974;47.538;18.972;2023-05-23T07:06:53;8.27;;;7.30;;
75400;SDS011;63974;47.538;18.972;2023-05-23T07:09:56;9.30;;;7.53;;
75400;SDS011;63974;47.538;18.972;2023-05-23T07:12:59;7.18;;;6.45;;
75400;SDS011;63974;47.538;18.972;2023-05-23T07:16:03;10.90;;;7.32;;
75400;SDS011;63974;47.538;18.972;2023-05-23T07:19:09;10.30;;;8.03;;
75400;SDS011;63974;47.538;18.972;2023-05-23T07:22:19;8.27;;;7.47;;
75400;SDS011;63974;47.538;18.972;2023-05-23T07:25:23;9.13;;;7.55;;
75400;SDS011;63974;47.538;18.972;2023-05-23T07:28:25;8.98;;;6.57;;
75400;SDS011;63974;47.538;18.972;2023-05-23T07:31:29;8.17;;;6.73;;
75400;SDS011;63974;47.538;18.972;2023-05-23T07:34:33;9.10;;;7.27;;
75400;SDS011;63974;47.538;18.972;2023-05-23T07:37:36;7.25;;;6.55;;
75400;SDS011;63974;47.538;18.972;2023-05-23T07:40:39;10.30;;;7.43;;
75400;SDS011;63974;47.538;18.972;2023-05-23T07:43:42;8.70;;;7.30;;
75400;SDS011;63974;47.538;18.972;2023-05-23T07:46:46;8.57;;;7.17;;
75400;SDS011;63974;47.538;18.972;2023-05-23T07:49:49;21.67;;;10.50;;
75400;SDS011;63974;47.538;18.972;2023-05-23T07:52:54;12.27;;;8.63;;
75400;SDS011;63974;47.538;18.972;2023-05-23T07:56:04;20.27;;;11.00;;
75400;SDS011;63974;47.538;18.972;2023-05-23T07:59:12;71.10;;;19.38;;
75400;SDS011;63974;47.538;18.972;2023-05-23T08:02:17;23.00;;;12.03;;
75400;SDS011;63974;47.538;18.972;2023-05-23T08:05:20;15.37;;;11.17;;
75400;SDS011;63974;47.538;18.972;2023-05-23T08:08:27;11.70;;;9.63;;
75400;SDS011;63974;47.538;18.972;2023-05-23T08:11:29;11.80;;;9.68;;
75400;SDS011;63974;47.538;18.972;2023-05-23T08:14:34;15.02;;;9.43;;
75400;SDS011;63974;47.538;18.972;2023-05-23T08:18:11;10.13;;;7.95;;
75400;SDS011;63974;47.538;18.972;2023-05-23T08:21:14;8.87;;;7.97;;
75400;SDS011;63974;47.538;18.972;2023-05-23T08:24:18;8.68;;;7.30;;
75400;SDS011;63974;47.538;18.972;2023-05-23T08:27:22;8.25;;;6.88;;
75400;SDS011;63974;47.538;18.972;2023-05-23T08:30:30;9.90;;;7.38;;
75400;SDS011;63974;47.538;18.972;2023-05-23T08:33:35;8.43;;;6.72;;
75400;SDS011;63974;47.538;18.972;2023-05-23T08:36:38;9.77;;;7.20;;
75400;SDS011;63974;47.538;18.972;2023-05-23T08:39:44;7.78;;;6.38;;
75400;SDS011;63974;47.538;18.972;2023-05-23T08:43:05;7.15;;;6.45;;
75400;SDS011;63974;47.538;18.972;2023-05-23T08:46:09;10.05;;;7.40;;
75400;SDS011;63974;47.538;18.972;2023-05-23T08:49:15;10.53;;;7.60;;
75400;SDS011;63974;47.538;18.972;2023-05-23T08:52:20;7.83;;;7.00;;
75400;SDS011;63974;47.538;18.972;2023-05-23T08:55:29;9.52;;;7.40;;
75400;SDS011;63974;47.538;18.972;2023-05-23T08:58:34;7.10;;;6.25;;
75400;SDS011;63974;47.538;18.972;2023-05-23T09:01:39;10.88;;;7.20;;
75400;SDS011;63974;47.538;18.972;2023-05-23T09:04:47;7.18;;;6.47;;
75400;SDS011;63974;47.538;18.972;2023-05-23T09:07:59;8.00;;;7.03;;
75400;SDS011;63974;47.538;18.972;2023-05-23T09:11:03;7.35;;;6.63;;
75400;SDS011;63974;47.538;18.972;2023-05-23T09:14:11;8.73;;;6.57;;
75400;SDS011;63974;47.538;18.972;2023-05-23T09:17:19;7.30;;;6.35;;
75400;SDS011;63974;47.538;18.972;2023-05-23T09:20:24;8.83;;;6.90;;
75400;SDS011;63974;47.538;18.972;2023-05-23T09:23:35;8.00;;;7.20;;
75400;SDS011;63974;47.538;18.972;2023-05-23T09:26:45;8.57;;;7.78;;
75400;SDS011;63974;47.538;18.972;2023-05-23T09:29:50;10.13;;;7.50;;
75400;SDS011;63974;47.538;18.972;2023-05-23T09:32:57;11.02;;;7.57;;
75400;SDS011;63974;47.538;18.972;2023-05-23T09:36:07;7.60;;;6.67;;
75400;SDS011;63974;47.538;18.972;2023-05-23T09:39:12;7.43;;;6.73;;
75400;SDS011;63974;47.538;18.972;2023-05-23T09:42:18;7.75;;;6.80;;
75400;SDS011;63974;47.538;18.972;2023-05-23T09:45:27;8.48;;;7.65;;
75400;SDS011;63974;47.538;18.972;2023-05-23T09:48:31;8.73;;;7.85;;
75400;SDS011;63974;47.538;18.972;2023-05-23T09:51:39;7.63;;;6.93;;
75400;SDS011;63974;47.538;18.972;2023-05-23T09:54:42;8.53;;;6.73;;
75400;SDS011;63974;47.538;18.972;2023-05-23T09:57:46;8.30;;;7.25;;
75400;SDS011;63974;47.538;18.972;2023-05-23T10:00:55;7.70;;;6.82;;
75400;SDS011;63974;47.538;18.972;2023-05-23T10:04:05;8.57;;;7.40;;
75400;SDS011;63974;47.538;18.972;2023-05-23T10:07:12;7.50;;;6.83;;
75400;SDS011;63974;47.538;18.972;2023-05-23T10:10:19;8.07;;;6.27;;
75400;SDS011;63974;47.538;18.972;2023-05-23T10:13:25;8.55;;;7.15;;
75400;SDS011;63974;47.538;18.972;2023-05-23T10:20:01;7.38;;;6.30;;
75400;SDS011;63974;47.538;18.972;2023-05-23T10:23:09;7.15;;;6.28;;
75400;SDS011;63974;47.538;18.972;2023-05-23T10:26:13;5.60;;;3.33;;
75400;SDS011;63974;47.538;18.972;2023-05-23T10:29:17;6.60;;;3.50;;
75400;SDS011;63974;47.538;18.972;2023-05-23T10:32:21;7.22;;;3.95;;
75400;SDS011;63974;47.538;18.972;2023-05-23T10:38:56;4.55;;;3.22;;
75400;SDS011;63974;47.538;18.972;2023-05-23T10:42:10;6.70;;;3.70;;
75400;SDS011;63974;47.538;18.972;2023-05-23T10:45:22;6.38;;;3.55;;
75400;SDS011;63974;47.538;18.972;2023-05-23T10:48:39;5.50;;;3.60;;
75400;SDS011;63974;47.538;18.972;2023-05-23T10:51:46;4.63;;;3.60;;
75400;SDS011;63974;47.538;18.972;2023-05-23T10:54:53;8.73;;;3.43;;
75400;SDS011;63974;47.538;18.972;2023-05-23T10:58:14;4.90;;;3.50;;
75400;SDS011;63974;47.538;18.972;2023-05-23T11:01:18;7.70;;;3.80;;
75400;SDS011;63974;47.538;18.972;2023-05-23T11:04:25;8.60;;;3.60;;
75400;SDS011;63974;47.538;18.972;2023-05-23T11:07:32;6.43;;;3.30;;
75400;SDS011;63974;47.538;18.972;2023-05-23T11:14:03;4.67;;;3.17;;
75400;SDS011;63974;47.538;18.972;2023-05-23T11:20:14;3.15;;;2.60;;
75400;SDS011;63974;47.538;18.972;2023-05-23T11:23:20;4.60;;;3.03;;
75400;SDS011;63974;47.538;18.972;2023-05-23T11:26:29;3.23;;;2.60;;
75400;SDS011;63974;47.538;18.972;2023-05-23T11:29:33;3.10;;;2.73;;
75400;SDS011;63974;47.538;18.972;2023-05-23T11:32:36;4.57;;;3.08;;
75400;SDS011;63974;47.538;18.972;2023-05-23T11:35:40;4.20;;;2.95;;
75400;SDS011;63974;47.538;18.972;2023-05-23T11:38:51;3.88;;;3.08;;
75400;SDS011;63974;47.538;18.972;2023-05-23T11:41:57;4.43;;;3.45;;
75400;SDS011;63974;47.538;18.972;2023-05-23T11:45:01;5.30;;;3.67;;
75400;SDS011;63974;47.538;18.972;2023-05-23T11:48:14;4.78;;;3.45;;
75400;SDS011;63974;47.538;18.972;2023-05-23T11:51:18;4.32;;;3.65;;
75400;SDS011;63974;47.538;18.972;2023-05-23T11:54:24;6.80;;;4.60;;
75400;SDS011;63974;47.538;18.972;2023-05-23T11:57:28;5.22;;;4.72;;
75400;SDS011;63974;47.538;18.972;2023-05-23T12:00:31;5.70;;;5.10;;
75400;SDS011;63974;47.538;18.972;2023-05-23T12:03:34;5.85;;;5.25;;
75400;SDS011;63974;47.538;18.972;2023-05-23T12:06:48;5.47;;;4.60;;
75400;SDS011;63974;47.538;18.972;2023-05-23T12:09:54;6.68;;;4.80;;
75400;SDS011;63974;47.538;18.972;2023-05-23T12:12:57;7.60;;;5.53;;
75400;SDS011;63974;47.538;18.972;2023-05-23T12:16:02;5.30;;;4.80;;
75400;SDS011;63974;47.538;18.972;2023-05-23T12:19:06;7.30;;;5.15;;
75400;SDS011;63974;47.538;18.972;2023-05-23T12:22:09;7.47;;;5.03;;
75400;SDS011;63974;47.538;18.972;2023-05-23T12:25:12;6.40;;;4.63;;
75400;SDS011;63974;47.538;18.972;2023-05-23T12:28:15;7.82;;;5.10;;
75400;SDS011;63974;47.538;18.972;2023-05-23T12:31:18;5.30;;;4.80;;
75400;SDS011;63974;47.538;18.972;2023-05-23T12:34:23;6.82;;;4.60;;
75400;SDS011;63974;47.538;18.972;2023-05-23T12:37:28;5.95;;;5.10;;
75400;SDS011;63974;47.538;18.972;2023-05-23T12:40:31;5.93;;;5.32;;
75400;SDS011;63974;47.538;18.972;2023-05-23T12:43:37;5.33;;;4.80;;
75400;SDS011;63974;47.538;18.972;2023-05-23T12:46:42;5.27;;;4.43;;
75400;SDS011;63974;47.538;18.972;2023-05-23T12:49:44;5.45;;;4.80;;
75400;SDS011;63974;47.538;18.972;2023-05-23T12:52:48;5.35;;;4.80;;
75400;SDS011;63974;47.538;18.972;2023-05-23T12:55:50;6.80;;;5.50;;
75400;SDS011;63974;47.538;18.972;2023-05-23T12:58:53;7.18;;;4.85;;
75400;SDS011;63974;47.538;18.972;2023-05-23T13:01:56;6.43;;;5.43;;
75400;SDS011;63974;47.538;18.972;2023-05-23T13:05:00;7.13;;;4.90;;
75400;SDS011;63974;47.538;18.972;2023-05-23T13:08:03;5.03;;;4.07;;
75400;SDS011;63974;47.538;18.972;2023-05-23T13:11:06;5.32;;;4.28;;
75400;SDS011;63974;47.538;18.972;2023-05-23T13:14:10;4.43;;;4.03;;
75400;SDS011;63974;47.538;18.972;2023-05-23T13:17:13;4.70;;;4.20;;
75400;SDS011;63974;47.538;18.972;2023-05-23T13:20:15;6.28;;;4.28;;
75400;SDS011;63974;47.538;18.972;2023-05-23T13:23:18;5.43;;;4.53;;
75400;SDS011;63974;47.538;18.972;2023-05-23T13:26:22;4.03;;;3.55;;
75400;SDS011;63974;47.538;18.972;2023-05-23T13:29:24;4.47;;;3.83;;
75400;SDS011;63974;47.538;18.972;2023-05-23T13:32:28;4.27;;;3.97;;
75400;SDS011;63974;47.538;18.972;2023-05-23T13:35:30;4.38;;;3.97;;
75400;SDS011;63974;47.538;18.972;2023-05-23T13:38:33;5.45;;;4.00;;
75400;SDS011;63974;47.538;18.972;2023-05-23T13:41:36;3.80;;;3.45;;
75400;SDS011;63974;47.538;18.972;2023-05-23T13:44:40;4.43;;;4.03;;
75400;SDS011;63974;47.538;18.972;2023-05-23T13:47:43;5.13;;;4.43;;
75400;SDS011;63974;47.538;18.972;2023-05-23T13:50:46;5.00;;;4.50;;
75400;SDS011;63974;47.538;18.972;2023-05-23T13:53:49;5.45;;;4.07;;
75400;SDS011;63974;47.538;18.972;2023-05-23T13:56:52;4.25;;;3.83;;
75400;SDS011;63974;47.538;18.972;2023-05-23T13:59:54;6.17;;;4.23;;
75400;SDS011;63974;47.538;18.972;2023-05-23T14:02:57;6.07;;;4.03;;
75400;SDS011;63974;47.538;18.972;2023-05-23T14:06:00;5.45;;;4.45;;
75400;SDS011;63974;47.538;18.972;2023-05-23T14:09:03;4.75;;;4.20;;
75400;SDS011;63974;47.538;18.972;2023-05-23T14:12:07;5.22;;;3.80;;
75400;SDS011;63974;47.538;18.972;2023-05-23T14:15:10;4.10;;;3.70;;
75400;SDS011;63974;47.538;18.972;2023-05-23T14:18:13;4.17;;;3.77;;
75400;SDS011;63974;47.538;18.972;2023-05-23T14:21:16;5.15;;;4.63;;
75400;SDS011;63974;47.538;18.972;2023-05-23T14:24:18;5.18;;;3.97;;
75400;SDS011;63974;47.538;18.972;2023-05-23T14:27:23;4.53;;;4.13;;
75400;SDS011;63974;47.538;18.972;2023-05-23T14:30:25;5.10;;;4.60;;
75400;SDS011;63974;47.538;18.972;2023-05-23T14:33:28;4.87;;;3.90;;
75400;SDS011;63974;47.538;18.972;2023-05-23T14:36:31;4.50;;;4.10;;
75400;SDS011;63974;47.538;18.972;2023-05-23T14:39:34;4.45;;;4.05;;
75400;SDS011;63974;47.538;18.972;2023-05-23T14:42:37;4.60;;;4.20;;
75400;SDS011;63974;47.538;18.972;2023-05-23T14:45:40;4.97;;;4.47;;
75400;SDS011;63974;47.538;18.972;2023-05-23T14:48:43;5.20;;;4.70;;
75400;SDS011;63974;47.538;18.972;2023-05-23T14:51:46;4.63;;;4.22;;
75400;SDS011;63974;47.538;18.972;2023-05-23T14:54:53;4.93;;;4.07;;
75400;SDS011;63974;47.538;18.972;2023-05-23T14:57:55;4.60;;;4.18;;
75400;SDS011;63974;47.538;18.972;2023-05-23T15:00:59;4.70;;;4.30;;
75400;SDS011;63974;47.538;18.972;2023-05-23T15:04:02;5.87;;;5.37;;
75400;SDS011;63974;47.538;18.972;2023-05-23T15:07:07;5.32;;;4.85;;
75400;SDS011;63974;47.538;18.972;2023-05-23T15:10:10;4.93;;;4.43;;
75400;SDS011;63974;47.538;18.972;2023-05-23T15:13:13;5.10;;;4.55;;
75400;SDS011;63974;47.538;18.972;2023-05-23T15:16:15;4.78;;;4.38;;
75400;SDS011;63974;47.538;18.972;2023-05-23T15:19:19;5.03;;;4.63;;
75400;SDS011;63974;47.538;18.972;2023-05-23T15:22:22;5.68;;;5.00;;
75400;SDS011;63974;47.538;18.972;2023-05-23T15:25:40;5.35;;;4.93;;
75400;SDS011;63974;47.538;18.972;2023-05-23T15:28:46;5.70;;;4.88;;
75400;SDS011;63974;47.538;18.972;2023-05-23T15:31:49;5.27;;;4.73;;
75400;SDS011;63974;47.538;18.972;2023-05-23T15:34:52;4.83;;;4.33;;
75400;SDS011;63974;47.538;18.972;2023-05-23T15:37:55;5.97;;;4.78;;
75400;SDS011;63974;47.538;18.972;2023-05-23T15:40:58;5.35;;;4.47;;
75400;SDS011;63974;47.538;18.972;2023-05-23T15:44:01;5.55;;;5.03;;
75400;SDS011;63974;47.538;18.972;2023-05-23T15:47:04;5.33;;;4.80;;
75400;SDS011;63974;47.538;18.972;2023-05-23T15:50:07;5.40;;;4.83;;
75400;SDS011;63974;47.538;18.972;2023-05-23T15:53:10;6.90;;;4.90;;
75400;SDS011;63974;47.538;18.972;2023-05-23T15:56:13;5.13;;;4.63;;
75400;SDS011;63974;47.538;18.972;2023-05-23T15:59:17;5.82;;;5.32;;
75400;SDS011;63974;47.538;18.972;2023-05-23T16:02:20;5.90;;;5.50;;
75400;SDS011;63974;47.538;18.972;2023-05-23T16:05:23;7.87;;;5.70;;
75400;SDS011;63974;47.538;18.972;2023-05-23T16:08:27;5.85;;;4.78;;
75400;SDS011;63974;47.538;18.972;2023-05-23T16:11:29;5.88;;;5.35;;
75400;SDS011;63974;47.538;18.972;2023-05-23T16:14:32;6.63;;;5.22;;
75400;SDS011;63974;47.538;18.972;2023-05-23T16:17:35;7.03;;;5.23;;
75400;SDS011;63974;47.538;18.972;2023-05-23T16:20:38;9.40;;;5.60;;
75400;SDS011;63974;47.538;18.972;2023-05-23T16:23:41;7.38;;;5.50;;
75400;SDS011;63974;47.538;18.972;2023-05-23T16:26:44;6.85;;;4.95;;
75400;SDS011;63974;47.538;18.972;2023-05-23T16:29:46;5.43;;;4.93;;
75400;SDS011;63974;47.538;18.972;2023-05-23T16:32:49;4.97;;;4.57;;
75400;SDS011;63974;47.538;18.972;2023-05-23T16:35:52;5.50;;;4.93;;
75400;SDS011;63974;47.538;18.972;2023-05-23T16:38:55;8.93;;;5.75;;
75400;SDS011;63974;47.538;18.972;2023-05-23T16:41:58;5.93;;;5.43;;
75400;SDS011;63974;47.538;18.972;2023-05-23T16:45:02;6.40;;;5.65;;
75400;SDS011;63974;47.538;18.972;2023-05-23T16:48:05;6.13;;;4.78;;
75400;SDS011;63974;47.538;18.972;2023-05-23T16:51:08;5.87;;;5.30;;
75400;SDS011;63974;47.538;18.972;2023-05-23T16:54:10;7.28;;;5.43;;
75400;SDS011;63974;47.538;18.972;2023-05-23T16:57:13;4.57;;;4.18;;
75400;SDS011;63974;47.538;18.972;2023-05-23T17:00:16;5.13;;;4.65;;
75400;SDS011;63974;47.538;18.972;2023-05-23T17:03:21;6.13;;;5.20;;
75400;SDS011;63974;47.538;18.972;2023-05-23T17:06:24;5.20;;;4.67;;
75400;SDS011;63974;47.538;18.972;2023-05-23T17:09:28;7.57;;;4.10;;
75400;SDS011;63974;47.538;18.972;2023-05-23T17:12:31;8.02;;;4.85;;
75400;SDS011;63974;47.538;18.972;2023-05-23T17:15:33;7.32;;;5.05;;
75400;SDS011;63974;47.538;18.972;2023-05-23T17:18:36;9.80;;;4.75;;
75400;SDS011;63974;47.538;18.972;2023-05-23T17:21:39;6.13;;;4.77;;
75400;SDS011;63974;47.538;18.972;2023-05-23T17:24:42;5.88;;;4.68;;
75400;SDS011;63974;47.538;18.972;2023-05-23T17:27:45;7.40;;;4.95;;
75400;SDS011;63974;47.538;18.972;2023-05-23T17:30:48;6.47;;;4.53;;
75400;SDS011;63974;47.538;18.972;2023-05-23T17:33:52;6.80;;;4.70;;
75400;SDS011;63974;47.538;18.972;2023-05-23T17:36:55;6.97;;;4.97;;
75400;SDS011;63974;47.538;18.972;2023-05-23T17:39:58;5.80;;;5.00;;
75400;SDS011;63974;47.538;18.972;2023-05-23T17:43:01;8.32;;;4.90;;
75400;SDS011;63974;47.538;18.972;2023-05-23T17:46:04;7.25;;;5.35;;
75400;SDS011;63974;47.538;18.972;2023-05-23T17:49:07;10.53;;;5.40;;
75400;SDS011;63974;47.538;18.972;2023-05-23T17:52:10;14.57;;;5.47;;
75400;SDS011;63974;47.538;18.972;2023-05-23T17:55:16;9.70;;;5.53;;
75400;SDS011;63974;47.538;18.972;2023-05-23T17:58:19;6.75;;;5.45;;
75400;SDS011;63974;47.538;18.972;2023-05-23T18:01:22;8.95;;;5.35;;
75400;SDS011;63974;47.538;18.972;2023-05-23T18:04:26;8.97;;;5.07;;
75400;SDS011;63974;47.538;18.972;2023-05-23T18:07:29;5.70;;;5.13;;
75400;SDS011;63974;47.538;18.972;2023-05-23T18:10:32;9.20;;;5.63;;
75400;SDS011;63974;47.538;18.972;2023-05-23T18:13:35;8.02;;;6.10;;
75400;SDS011;63974;47.538;18.972;2023-05-23T18:16:38;8.00;;;6.00;;
75400;SDS011;63974;47.538;18.972;2023-05-23T18:19:40;9.63;;;5.65;;
75400;SDS011;63974;47.538;18.972;2023-05-23T18:22:44;6.50;;;5.23;;
75400;SDS011;63974;47.538;18.972;2023-05-23T18:25:46;7.00;;;5.47;;
75400;SDS011;63974;47.538;18.972;2023-05-23T18:28:49;6.82;;;5.15;;